Time;durP1;ratioP1;P1;durP2;ratioP2;P2;SDS_P1;SDS_P2;PMS_P1;PMS_P2;Temp;Humidity;BMP_temperature;BMP_pressure;BME280_temperature;BME280_humidity;BME280_pressure;Samples;Min_cycle;Max_cycle;Signal;HPM_P1;HPM_P2
2022/10/06 00:01:18;;;;;;;1.25;0.75;;;14.80;99.90;;;;;;5155894;27;20049;-63
2022/10/06 00:03:44;;;;;;;5.68;0.77;;;14.80;99.90;;;;;;5155687;27;20409;-63
2022/10/06 00:06:12;;;;;;;2.80;0.70;;;14.80;99.90;;;;;;5155900;27;20045;-63
2022/10/06 00:08:39;;;;;;;3.88;0.60;;;14.80;99.90;;;;;;5156116;27;20071;-63
2022/10/06 00:11:06;;;;;;;2.72;0.70;;;14.80;99.90;;;;;;5155566;27;20046;-63
2022/10/06 00:13:33;;;;;;;2.95;0.60;;;14.70;99.90;;;;;;5155062;27;20490;-63
2022/10/06 00:15:59;;;;;;;3.70;0.60;;;14.70;99.90;;;;;;5155270;27;20376;-63
2022/10/06 00:18:25;;;;;;;2.40;0.63;;;14.70;99.90;;;;;;5155505;27;20055;-63
2022/10/06 00:20:59;;;;;;;3.58;0.80;;;14.70;99.90;;;;;;5155777;27;20437;-63
2022/10/06 00:23:26;;;;;;;3.15;0.93;;;14.70;99.90;;;;;;5155381;27;20510;-63
2022/10/06 00:25:52;;;;;;;4.35;1.08;;;14.60;99.90;;;;;;5155097;27;20043;-63
2022/10/06 00:28:18;;;;;;;1.27;0.70;;;14.60;99.90;;;;;;5155316;27;20175;-63
2022/10/06 00:30:44;;;;;;;1.35;0.90;;;14.60;99.90;;;;;;5153967;27;20410;-63
2022/10/06 00:33:12;;;;;;;1.92;0.90;;;14.60;99.90;;;;;;5155481;27;20155;-63
2022/10/06 00:35:38;;;;;;;4.53;0.70;;;14.60;99.90;;;;;;5155125;27;20461;-63
2022/10/06 00:38:04;;;;;;;1.75;0.73;;;14.50;99.90;;;;;;5155198;27;20164;-63
2022/10/06 00:40:31;;;;;;;2.83;0.70;;;14.50;99.90;;;;;;5155097;27;20095;-63
2022/10/06 00:42:59;;;;;;;1.13;0.80;;;14.50;99.90;;;;;;5155112;27;20039;-63
2022/10/06 00:45:38;;;;;;;2.72;0.98;;;14.50;99.90;;;;;;5154660;27;20034;-63
2022/10/06 00:48:22;;;;;;;3.17;0.93;;;14.50;99.90;;;;;;5153936;27;20440;-63
2022/10/06 00:50:50;;;;;;;3.55;0.65;;;14.50;99.90;;;;;;5154961;27;20107;-63
2022/10/06 00:53:16;;;;;;;1.73;0.70;;;14.50;99.90;;;;;;5154957;27;20126;-64
2022/10/06 00:55:41;;;;;;;3.08;1.00;;;14.50;99.90;;;;;;5154363;27;20066;-63
2022/10/06 00:58:09;;;;;;;1.10;0.80;;;14.40;99.90;;;;;;5154804;27;20469;-63
2022/10/06 01:00:34;;;;;;;3.13;0.73;;;14.40;99.90;;;;;;5154896;27;20066;-63
2022/10/06 01:03:17;;;;;;;3.20;0.90;;;14.40;99.90;;;;;;5154780;27;20058;-63
2022/10/06 01:05:47;;;;;;;1.80;1.10;;;14.30;99.90;;;;;;5154413;27;20401;-63
2022/10/06 01:08:14;;;;;;;2.28;0.70;;;14.30;99.90;;;;;;5154533;27;20046;-63
2022/10/06 01:10:40;;;;;;;2.35;0.75;;;14.30;99.90;;;;;;5135796;27;20046;-63
2022/10/06 01:13:06;;;;;;;1.48;0.73;;;14.30;99.90;;;;;;5154656;27;20455;-63
2022/10/06 01:15:32;;;;;;;2.63;1.15;;;14.20;99.90;;;;;;5154255;27;20042;-63
2022/10/06 01:18:07;;;;;;;3.20;1.10;;;14.20;99.90;;;;;;5154432;27;20039;-63
2022/10/06 01:20:35;;;;;;;3.65;1.15;;;14.30;99.90;;;;;;5154305;27;20046;-63
2022/10/06 01:23:04;;;;;;;4.57;0.93;;;14.20;99.90;;;;;;5154161;27;20054;-63
2022/10/06 01:25:32;;;;;;;7.78;1.58;;;14.20;99.90;;;;;;5153520;27;20043;-63
2022/10/06 01:28:00;;;;;;;3.97;0.73;;;14.10;99.90;;;;;;5154291;27;20070;-63
2022/10/06 01:30:30;;;;;;;2.28;0.75;;;14.20;99.90;;;;;;5154156;27;20049;-63
2022/10/06 01:32:56;;;;;;;5.80;0.88;;;14.10;99.90;;;;;;5154245;27;20034;-63
2022/10/06 01:35:23;;;;;;;4.40;0.82;;;14.10;99.90;;;;;;5153748;27;20393;-63
2022/10/06 01:37:48;;;;;;;3.25;1.00;;;14.10;99.90;;;;;;5153931;27;20077;-63
2022/10/06 01:40:14;;;;;;;3.75;1.20;;;14.10;99.90;;;;;;5154038;27;20066;-63
2022/10/06 01:42:39;;;;;;;3.20;1.00;;;14.10;99.90;;;;;;5153774;27;20379;-63
2022/10/06 01:45:06;;;;;;;3.25;1.08;;;14.10;99.90;;;;;;5153667;27;20083;-63
2022/10/06 01:47:33;;;;;;;1.80;1.23;;;14.00;99.90;;;;;;5153453;27;20049;-63
2022/10/06 01:49:59;;;;;;;4.15;1.02;;;14.00;99.90;;;;;;5153954;27;20035;-63
2022/10/06 01:52:25;;;;;;;3.13;1.10;;;13.90;99.90;;;;;;5153893;27;20044;-63
2022/10/06 01:54:51;;;;;;;2.28;0.80;;;14.00;99.90;;;;;;5153547;27;20043;-63
2022/10/06 01:57:17;;;;;;;5.82;1.08;;;13.90;99.90;;;;;;5153648;27;20042;-63
2022/10/06 01:59:42;;;;;;;3.38;1.15;;;13.90;99.90;;;;;;5153540;27;20037;-63
2022/10/06 02:02:08;;;;;;;3.45;1.00;;;13.90;99.90;;;;;;5153827;27;20049;-63
2022/10/06 02:04:34;;;;;;;5.07;0.88;;;13.90;99.90;;;;;;5152019;27;20046;-63
2022/10/06 02:07:00;;;;;;;5.65;1.02;;;13.90;99.90;;;;;;5153598;27;20035;-63
2022/10/06 02:09:25;;;;;;;3.38;1.02;;;13.90;99.90;;;;;;5152421;27;20035;-63
2022/10/06 02:11:51;;;;;;;6.00;0.80;;;13.80;99.90;;;;;;5153401;27;20039;-63
2022/10/06 02:14:17;;;;;;;2.63;1.17;;;13.80;99.90;;;;;;5151897;27;20039;-63
2022/10/06 02:16:43;;;;;;;3.67;0.93;;;13.80;99.90;;;;;;5152259;27;20043;-63
2022/10/06 02:19:09;;;;;;;2.67;0.95;;;13.80;99.90;;;;;;5153682;27;20059;-63
2022/10/06 02:21:34;;;;;;;4.78;0.90;;;13.80;99.90;;;;;;5153547;27;20030;-64
2022/10/06 02:24:00;;;;;;;7.10;0.90;;;13.80;99.90;;;;;;5153129;27;20083;-63
2022/10/06 02:26:26;;;;;;;5.55;1.00;;;13.80;99.90;;;;;;5152787;27;20055;-63
2022/10/06 02:28:51;;;;;;;3.97;1.13;;;13.80;99.90;;;;;;5153464;27;20110;-63
2022/10/06 02:31:17;;;;;;;4.57;1.10;;;13.70;99.90;;;;;;5153456;27;20429;-63
2022/10/06 02:33:43;;;;;;;5.53;1.20;;;13.70;99.90;;;;;;5153334;27;20035;-63
2022/10/06 02:36:12;;;;;;;4.18;1.15;;;13.70;99.90;;;;;;5155696;27;20562;-63
2022/10/06 02:38:38;;;;;;;4.60;1.15;;;13.70;99.90;;;;;;5156932;27;20042;-63
2022/10/06 02:41:05;;;;;;;5.15;1.20;;;13.70;99.90;;;;;;5157622;27;20039;-63
2022/10/06 02:43:30;;;;;;;4.53;1.20;;;13.70;99.90;;;;;;5157531;27;20109;-63
2022/10/06 02:46:00;;;;;;;5.60;1.10;;;13.70;99.90;;;;;;5157182;27;20530;-63
2022/10/06 02:48:26;;;;;;;2.42;1.00;;;13.70;99.90;;;;;;5157557;27;20034;-63
2022/10/06 02:50:54;;;;;;;5.97;1.30;;;13.70;99.90;;;;;;5156116;27;20490;-66
2022/10/06 02:53:20;;;;;;;3.83;1.20;;;13.70;99.90;;;;;;5157577;27;20052;-63
2022/10/06 02:55:45;;;;;;;4.90;1.40;;;13.70;99.90;;;;;;5156842;27;20460;-63
2022/10/06 02:58:11;;;;;;;7.40;1.17;;;13.70;99.90;;;;;;5157031;27;20558;-64
2022/10/06 03:00:37;;;;;;;7.00;1.00;;;13.60;99.90;;;;;;5157214;27;20043;-63
2022/10/06 03:03:03;;;;;;;8.27;1.50;;;13.60;99.90;;;;;;5157040;27;20444;-63
2022/10/06 03:05:29;;;;;;;6.00;1.27;;;13.60;99.90;;;;;;5156559;27;20393;-63
2022/10/06 03:07:54;;;;;;;4.72;1.15;;;13.50;99.90;;;;;;5156998;27;20051;-63
2022/10/06 03:10:20;;;;;;;7.40;1.52;;;13.50;99.90;;;;;;5155618;27;20045;-63
2022/10/06 03:12:46;;;;;;;2.20;1.20;;;13.50;99.90;;;;;;5157018;27;20391;-63
2022/10/06 03:15:11;;;;;;;5.20;1.30;;;13.50;99.90;;;;;;5156629;27;20042;-64
2022/10/06 03:17:37;;;;;;;6.90;1.40;;;13.50;99.90;;;;;;5156733;27;20039;-63
2022/10/06 03:20:03;;;;;;;5.45;1.08;;;13.50;99.90;;;;;;5156626;27;20126;-63
2022/10/06 03:22:28;;;;;;;5.95;1.20;;;13.40;99.90;;;;;;5156854;27;20157;-63
2022/10/06 03:24:54;;;;;;;6.55;1.27;;;13.40;99.90;;;;;;5156334;27;20034;-63
2022/10/06 03:27:20;;;;;;;1.60;1.00;;;13.40;99.90;;;;;;5155494;27;20059;-63
2022/10/06 03:29:45;;;;;;;8.35;1.48;;;13.40;99.90;;;;;;5156497;27;20066;-64
2022/10/06 03:32:11;;;;;;;6.70;1.23;;;13.30;99.90;;;;;;5156446;27;20031;-64
2022/10/06 03:34:36;;;;;;;5.10;1.02;;;13.30;99.90;;;;;;5156104;27;20114;-64
2022/10/06 03:37:02;;;;;;;5.82;1.30;;;13.30;99.90;;;;;;5156212;27;20070;-64
2022/10/06 03:39:27;;;;;;;5.60;1.10;;;13.30;99.90;;;;;;5156455;27;20529;-64
2022/10/06 03:41:53;;;;;;;2.58;1.10;;;13.20;99.90;;;;;;5156436;27;20039;-64
2022/10/06 03:44:20;;;;;;;3.03;0.93;;;13.20;99.90;;;;;;5155966;27;20070;-64
2022/10/06 03:46:46;;;;;;;4.25;1.55;;;13.20;99.90;;;;;;5136885;27;20043;-64
2022/10/06 03:49:12;;;;;;;5.60;1.40;;;13.10;99.90;;;;;;5156203;27;20046;-64
2022/10/06 03:51:40;;;;;;;5.90;1.70;;;13.10;99.90;;;;;;5155890;27;20046;-63
2022/10/06 03:54:09;;;;;;;6.50;1.40;;;13.00;99.90;;;;;;5155985;27;20034;-63
2022/10/06 03:56:37;;;;;;;4.95;1.10;;;13.00;99.90;;;;;;5156030;27;20136;-64
2022/10/06 03:59:06;;;;;;;3.67;1.20;;;13.10;99.90;;;;;;5155977;27;20053;-64
2022/10/06 04:01:43;;;;;;;2.75;1.00;;;13.00;99.90;;;;;;5155937;27;20085;-64
2022/10/06 04:04:09;;;;;;;3.13;1.10;;;13.00;99.90;;;;;;5155542;27;20550;-64
2022/10/06 04:06:37;;;;;;;3.35;1.10;;;13.00;99.90;;;;;;5155896;27;20043;-64
2022/10/06 04:09:07;;;;;;;3.58;1.13;;;13.00;99.90;;;;;;5155817;27;20505;-64
2022/10/06 04:11:36;;;;;;;5.63;1.35;;;13.00;99.90;;;;;;5155621;27;20043;-64
2022/10/06 04:14:04;;;;;;;9.07;1.30;;;13.00;99.90;;;;;;5155414;27;20406;-64
2022/10/06 04:16:32;;;;;;;5.57;1.10;;;13.00;99.90;;;;;;5155538;27;20113;-63
2022/10/06 04:19:00;;;;;;;3.55;1.10;;;12.90;99.90;;;;;;5155530;27;20547;-64
2022/10/06 04:21:28;;;;;;;5.60;1.45;;;12.90;99.90;;;;;;5155498;27;20746;-63
2022/10/06 04:23:55;;;;;;;2.83;1.30;;;12.90;99.90;;;;;;5153933;27;20074;-63
2022/10/06 04:26:23;;;;;;;3.90;1.45;;;12.80;99.90;;;;;;5155325;27;20035;-64
2022/10/06 04:28:49;;;;;;;6.47;1.00;;;12.80;99.90;;;;;;5155309;27;20114;-63
2022/10/06 04:31:16;;;;;;;4.65;1.20;;;12.70;99.90;;;;;;5153923;27;20122;-63
2022/10/06 04:33:43;;;;;;;3.25;1.42;;;12.70;99.90;;;;;;5155117;27;20041;-63
2022/10/06 04:36:12;;;;;;;2.92;1.30;;;12.70;99.90;;;;;;5155086;27;20110;-64
2022/10/06 04:38:37;;;;;;;5.40;1.25;;;12.70;99.90;;;;;;5154792;27;20380;-64
2022/10/06 04:41:14;;;;;;;10.63;1.50;;;12.60;99.90;;;;;;5155203;27;20067;-63
2022/10/06 04:43:40;;;;;;;3.20;1.27;;;12.60;99.90;;;;;;5155104;27;20106;-64
2022/10/06 04:46:06;;;;;;;3.28;1.40;;;12.60;99.90;;;;;;5136367;27;20093;-64
2022/10/06 04:48:33;;;;;;;5.22;1.40;;;12.50;99.90;;;;;;5154872;27;20506;-64
2022/10/06 04:51:00;;;;;;;6.22;1.20;;;12.50;99.90;;;;;;5154892;27;20034;-64
2022/10/06 04:53:27;;;;;;;6.85;1.27;;;12.50;99.90;;;;;;5154962;27;20034;-63
2022/10/06 04:56:08;;;;;;;4.70;1.50;;;12.50;99.90;;;;;;5154448;27;20487;-63
2022/10/06 04:58:36;;;;;;;6.18;1.35;;;12.40;99.90;;;;;;5154534;27;20035;-64
2022/10/06 05:01:03;;;;;;;10.43;1.98;;;12.40;99.90;;;;;;5154613;27;20046;-64
2022/10/06 05:03:29;;;;;;;8.63;1.33;;;12.40;99.90;;;;;;5154915;27;20045;-64
2022/10/06 05:06:29;;;;;;;5.68;1.52;;;12.30;99.90;;;;;;5153240;27;20043;-63
2022/10/06 05:08:57;;;;;;;4.45;1.25;;;12.20;99.90;;;;;;5138828;27;20086;-64
2022/10/06 05:11:23;;;;;;;6.95;1.48;;;12.20;99.90;;;;;;5154409;27;20047;-63
2022/10/06 05:13:50;;;;;;;5.72;1.50;;;12.20;99.90;;;;;;5154441;27;20046;-64
2022/10/06 05:16:16;;;;;;;4.22;1.58;;;12.20;99.90;;;;;;5154570;27;20440;-63
2022/10/06 05:18:42;;;;;;;5.72;1.35;;;12.20;99.90;;;;;;5154519;27;20085;-63
2022/10/06 05:21:17;;;;;;;4.13;1.20;;;12.20;99.90;;;;;;5154423;27;20095;-64
2022/10/06 05:23:44;;;;;;;4.72;1.50;;;12.20;99.90;;;;;;5154182;27;20039;-64
2022/10/06 05:26:11;;;;;;;5.93;1.23;;;12.10;99.90;;;;;;5154071;27;20081;-63
2022/10/06 05:28:37;;;;;;;5.88;1.30;;;12.20;99.90;;;;;;5152887;27;20043;-63
2022/10/06 05:31:25;;;;;;;6.00;1.30;;;12.10;99.90;;;;;;5154358;27;20035;-63
2022/10/06 05:33:51;;;;;;;4.32;1.58;;;12.00;99.90;;;;;;5153916;27;20448;-64
2022/10/06 05:36:19;;;;;;;9.98;1.38;;;12.00;99.90;;;;;;5152379;27;20030;-64
2022/10/06 05:38:46;;;;;;;11.48;2.55;;;11.90;99.90;;;;;;5150340;27;20038;-64
2022/10/06 05:41:11;;;;;;;11.45;1.50;;;11.90;99.90;;;;;;5151718;27;20174;-64
2022/10/06 05:43:37;;;;;;;11.02;2.33;;;11.80;99.90;;;;;;5153231;27;20038;-64
2022/10/06 05:46:06;;;;;;;7.78;1.55;;;11.70;99.90;;;;;;5151691;27;20129;-63
2022/10/06 05:48:32;;;;;;;5.15;1.55;;;11.70;99.90;;;;;;5151222;27;20079;-63
2022/10/06 05:51:07;;;;;;;11.30;1.92;;;11.60;99.90;;;;;;5151721;27;20472;-64
2022/10/06 05:53:34;;;;;;;5.65;1.30;;;11.70;99.90;;;;;;5153819;27;20079;-63
2022/10/06 05:56:08;;;;;;;9.73;2.05;;;11.70;99.90;;;;;;5153505;27;20395;-64
2022/10/06 05:58:36;;;;;;;4.63;1.67;;;11.70;99.90;;;;;;5152459;27;20043;-64
2022/10/06 06:01:12;;;;;;;10.23;1.67;;;11.80;99.90;;;;;;5153687;27;20039;-63
2022/10/06 06:03:39;;;;;;;6.68;1.50;;;11.70;99.90;;;;;;5153922;27;20483;-63
2022/10/06 06:06:18;;;;;;;6.88;1.55;;;11.70;99.90;;;;;;5153531;27;20062;-64
2022/10/06 06:08:44;;;;;;;6.72;1.65;;;11.70;99.90;;;;;;5153628;27;20039;-64
2022/10/06 06:11:11;;;;;;;5.88;1.65;;;11.60;99.90;;;;;;5153115;27;20383;-64
2022/10/06 06:13:36;;;;;;;13.02;1.77;;;11.60;99.90;;;;;;5153376;27;20039;-63
2022/10/06 06:16:04;;;;;;;4.82;1.65;;;11.70;99.90;;;;;;5151607;27;20127;-64
2022/10/06 06:18:34;;;;;;;6.20;1.73;;;11.60;99.90;;;;;;5153300;27;20034;-64
2022/10/06 06:21:02;;;;;;;3.03;1.25;;;11.70;99.90;;;;;;5153358;27;20089;-64
2022/10/06 06:23:34;;;;;;;8.77;1.35;;;11.60;99.90;;;;;;5153535;27;20041;-64
2022/10/06 06:26:05;;;;;;;8.85;1.85;;;11.60;99.90;;;;;;5151933;27;20047;-64
2022/10/06 06:28:32;;;;;;;12.98;1.50;;;11.60;99.90;;;;;;5152170;27;20125;-63
2022/10/06 06:31:01;;;;;;;3.50;1.52;;;11.60;99.90;;;;;;5153286;27;20536;-64
2022/10/06 06:33:28;;;;;;;4.93;1.73;;;11.60;99.90;;;;;;5153243;27;20083;-63
2022/10/06 06:35:54;;;;;;;4.85;1.33;;;11.70;99.90;;;;;;5152808;27;20055;-63
2022/10/06 06:38:20;;;;;;;4.70;1.30;;;11.60;99.90;;;;;;5151871;27;20543;-64
2022/10/06 06:40:45;;;;;;;8.68;1.83;;;11.70;99.90;;;;;;5153163;27;20363;-63
2022/10/06 06:43:11;;;;;;;6.38;1.42;;;11.70;99.90;;;;;;5153276;27;20066;-64
2022/10/06 06:45:37;;;;;;;8.88;1.65;;;11.70;99.90;;;;;;5151520;27;20043;-63
2022/10/06 06:48:04;;;;;;;2.17;1.42;;;11.80;99.90;;;;;;5147706;27;20057;-64
2022/10/06 06:50:30;;;;;;;6.88;1.27;;;11.80;99.90;;;;;;5142339;27;20038;-63
2022/10/06 06:52:56;;;;;;;5.53;1.25;;;11.80;99.90;;;;;;5140314;27;20047;-64
2022/10/06 06:55:21;;;;;;;8.48;1.50;;;11.80;99.90;;;;;;5139945;27;20030;-64
2022/10/06 06:57:48;;;;;;;6.18;1.48;;;11.80;99.90;;;;;;5142103;27;20043;-64
2022/10/06 07:00:15;;;;;;;9.07;1.50;;;11.90;99.90;;;;;;5141014;27;20534;-64
2022/10/06 07:02:41;;;;;;;4.40;1.10;;;11.90;99.90;;;;;;5141263;27;20037;-64
2022/10/06 07:05:07;;;;;;;7.85;1.58;;;11.90;99.90;;;;;;5142455;27;20451;-64
2022/10/06 07:07:34;;;;;;;11.57;1.58;;;11.90;99.90;;;;;;5146835;27;20066;-64
2022/10/06 07:10:00;;;;;;;12.23;4.15;;;11.90;99.90;;;;;;5150695;27;20031;-63
2022/10/06 07:12:26;;;;;;;15.77;7.00;;;12.00;99.90;;;;;;5151629;27;20045;-65
2022/10/06 07:25:52;;;;;;;6.50;1.25;;;12.10;99.90;;;;;;5147352;27;20054;-66
2022/10/06 07:28:17;;;;;;;9.77;1.50;;;12.10;99.90;;;;;;5148781;27;20486;-67
2022/10/06 07:30:43;;;;;;;4.25;1.55;;;12.20;99.90;;;;;;5144188;27;20039;-66
2022/10/06 07:33:09;;;;;;;6.47;1.40;;;12.20;99.90;;;;;;5137271;27;20390;-66
2022/10/06 07:35:38;;;;;;;10.00;1.58;;;12.20;99.90;;;;;;5143322;27;20110;-66
2022/10/06 07:38:07;;;;;;;5.35;1.50;;;12.30;99.90;;;;;;5144557;27;20084;-67
2022/10/06 07:40:34;;;;;;;3.88;1.58;;;12.30;99.90;;;;;;5146078;27;20495;-66
2022/10/06 07:43:01;;;;;;;6.93;1.60;;;12.30;99.90;;;;;;5144000;27;20122;-66
2022/10/06 07:45:40;;;;;;;10.18;2.15;;;12.30;99.90;;;;;;5136343;27;20038;-66
2022/10/06 07:48:14;;;;;;;7.18;1.25;;;12.40;99.90;;;;;;5135604;27;20120;-67
2022/10/06 07:50:41;;;;;;;4.40;1.15;;;12.40;99.90;;;;;;5140543;27;20555;-66
2022/10/06 07:53:10;;;;;;;5.95;1.02;;;12.50;99.90;;;;;;5141429;27;20042;-66
2022/10/06 07:55:40;;;;;;;4.32;1.27;;;12.50;99.90;;;;;;5141810;27;20023;-66
2022/10/06 07:58:17;;;;;;;6.28;1.40;;;12.60;99.90;;;;;;5153414;27;20098;-66
2022/10/06 08:00:44;;;;;;;6.03;1.77;;;12.60;99.90;;;;;;5155324;27;20038;-66
2022/10/06 08:03:11;;;;;;;4.95;1.50;;;12.70;99.90;;;;;;5134856;27;20035;-66
2022/10/06 08:05:38;;;;;;;4.45;1.25;;;12.70;99.90;;;;;;5134356;27;20118;-66
2022/10/06 08:08:04;;;;;;;7.57;2.03;;;12.70;99.90;;;;;;5134402;27;20058;-66
2022/10/06 08:10:30;;;;;;;7.30;1.50;;;12.80;99.90;;;;;;5134286;27;20078;-66
2022/10/06 08:12:55;;;;;;;6.00;1.17;;;12.80;99.90;;;;;;5134821;27;20067;-66
2022/10/06 08:15:21;;;;;;;7.22;1.85;;;12.80;99.90;;;;;;5142710;27;20405;-66
2022/10/06 08:17:46;;;;;;;8.13;1.35;;;12.90;99.90;;;;;;5155258;27;20477;-66
2022/10/06 08:20:13;;;;;;;4.68;1.30;;;12.90;99.90;;;;;;5155333;27;20087;-66
2022/10/06 08:22:39;;;;;;;5.05;2.45;;;12.90;99.90;;;;;;5154971;27;20171;-66
2022/10/06 08:25:08;;;;;;;9.63;1.60;;;12.90;99.90;;;;;;5154545;27;20099;-69
2022/10/06 08:27:35;;;;;;;7.30;1.55;;;13.00;99.90;;;;;;5154094;27;20545;-69
2022/10/06 08:30:03;;;;;;;4.68;1.27;;;13.00;99.90;;;;;;5154862;27;20030;-68
2022/10/06 08:32:30;;;;;;;5.80;1.60;;;13.10;99.90;;;;;;5150481;27;20058;-69
2022/10/06 08:34:56;;;;;;;5.82;1.67;;;13.10;99.90;;;;;;5140759;27;20050;-67
2022/10/06 08:37:25;;;;;;;6.05;2.20;;;13.10;99.90;;;;;;5151889;27;20038;-68
2022/10/06 08:39:52;;;;;;;7.15;1.48;;;13.20;99.90;;;;;;5154722;27;20490;-69
2022/10/06 08:42:40;;;;;;;11.48;2.42;;;13.20;99.90;;;;;;5154769;27;20042;-68
2022/10/06 08:45:22;;;;;;;9.63;1.50;;;13.30;99.90;;;;;;5136416;27;20146;-69
2022/10/06 08:47:51;;;;;;;;;;;13.30;99.90;;;;;;5134156;27;20057;-68
2022/10/06 08:50:17;;;;;;;2.85;1.23;;;13.30;99.90;;;;;;5133733;27;19923;-67
2022/10/06 08:52:54;;;;;;;7.70;1.42;;;13.40;99.90;;;;;;5133981;27;20509;-67
2022/10/06 08:55:22;;;;;;;6.53;1.73;;;13.50;99.90;;;;;;5132509;27;20044;-67
2022/10/06 08:58:01;;;;;;;9.45;1.40;;;13.50;99.90;;;;;;5133722;27;20093;-68
2022/10/06 09:00:31;;;;;;;6.70;1.92;;;13.50;99.90;;;;;;5131675;27;20045;-69
2022/10/06 09:02:58;;;;;;;7.38;1.30;;;13.60;99.90;;;;;;5133674;27;20518;-69
2022/10/06 09:05:25;;;;;;;4.10;1.05;;;13.50;99.90;;;;;;5134159;27;20493;-69
2022/10/06 09:08:23;;;;;;;5.53;1.35;;;13.60;99.90;;;;;;5149703;27;20038;-69
2022/10/06 09:11:24;;;;;;;9.05;1.92;;;13.60;99.90;;;;;;5154243;27;20046;-69
2022/10/06 09:14:01;;;;;;;9.93;1.83;;;13.60;99.90;;;;;;5154094;27;20081;-69
2022/10/06 09:16:30;;;;;;;7.28;1.75;;;13.60;99.90;;;;;;5154290;27;20031;-68
2022/10/06 09:19:46;;;;;;;2.95;1.15;;;13.70;99.90;;;;;;5154220;27;20070;-68
2022/10/06 09:22:21;;;;;;;7.95;2.67;;;13.80;99.90;;;;;;5118197;27;20091;-69
2022/10/06 09:24:50;;;;;;;7.53;1.40;;;13.80;99.90;;;;;;5153935;27;20035;-68
2022/10/06 09:27:22;;;;;;;2.58;1.23;;;13.90;99.90;;;;;;5152697;27;20045;-69
2022/10/06 09:29:48;;;;;;;6.80;1.05;;;13.90;99.90;;;;;;5153961;27;20041;-69
2022/10/06 09:32:19;;;;;;;3.63;1.40;;;14.00;99.90;;;;;;5152421;27;20498;-69
2022/10/06 09:34:51;;;;;;;6.68;1.30;;;14.00;99.90;;;;;;5153844;27;20034;-70
2022/10/06 09:37:17;;;;;;;4.13;1.60;;;14.00;99.90;;;;;;5153888;27;20027;-70
2022/10/06 09:39:49;;;;;;;9.93;1.38;;;14.10;99.90;;;;;;5146992;27;20042;-70
2022/10/06 09:42:28;;;;;;;7.43;1.70;;;14.20;99.90;;;;;;5138839;27;20563;-69
2022/10/06 09:45:22;;;;;;;4.93;1.27;;;14.20;99.90;;;;;;5145851;27;20058;-69
2022/10/06 09:47:49;;;;;;;4.25;1.40;;;14.30;99.90;;;;;;5144337;27;20043;-67
2022/10/06 09:50:20;;;;;;;6.07;1.20;;;14.30;99.90;;;;;;5153161;27;20035;-67
2022/10/06 09:53:02;;;;;;;3.42;1.23;;;14.40;99.90;;;;;;5142860;27;20039;-67
2022/10/06 09:55:36;;;;;;;7.53;1.20;;;14.40;99.90;;;;;;5142359;27;20105;-67
2022/10/06 09:58:14;;;;;;;3.03;1.00;;;14.40;99.90;;;;;;5141496;27;20042;-67
2022/10/06 10:00:52;;;;;;;3.13;1.10;;;14.40;99.90;;;;;;5141130;27;20034;-67
2022/10/06 10:03:18;;;;;;;3.50;0.85;;;14.40;99.90;;;;;;5143031;27;20043;-67
2022/10/06 10:05:53;;;;;;;7.72;2.30;;;14.50;99.90;;;;;;5141549;27;20039;-68
2022/10/06 10:08:25;;;;;;;5.35;1.17;;;14.50;99.90;;;;;;5136413;27;20069;-68
2022/10/06 10:13:56;;;;;;;7.78;1.02;;;14.60;99.90;;;;;;5132576;27;20453;-68
2022/10/06 10:16:33;;;;;;;8.95;1.30;;;14.70;99.90;;;;;;5131677;27;20072;-68
2022/10/06 10:18:59;;;;;;;5.28;1.00;;;14.70;99.90;;;;;;5132704;27;20119;-68
2022/10/06 10:21:29;;;;;;;4.82;1.17;;;14.70;99.90;;;;;;5132821;27;20039;-69
2022/10/06 10:23:59;;;;;;;6.28;1.13;;;14.70;99.90;;;;;;5132994;27;20039;-69
2022/10/06 10:26:48;;;;;;;4.72;1.35;;;14.70;99.90;;;;;;5133230;27;20083;-69
2022/10/06 10:29:29;;;;;;;4.13;1.63;;;14.80;99.90;;;;;;5132906;27;20043;-68
2022/10/06 10:32:11;;;;;;;6.25;1.40;;;14.90;99.90;;;;;;5131334;28;20510;-68
2022/10/06 10:34:40;;;;;;;5.43;1.10;;;14.90;99.90;;;;;;5132470;27;20039;-68
2022/10/06 10:37:28;;;;;;;6.70;1.25;;;14.90;99.90;;;;;;5132579;27;20039;-68
2022/10/06 10:40:01;;;;;;;3.22;1.08;;;15.00;99.90;;;;;;5132512;27;20039;-69
2022/10/06 10:42:29;;;;;;;10.13;1.10;;;15.00;99.90;;;;;;5132474;27;20039;-68
2022/10/06 10:45:00;;;;;;;5.25;1.05;;;14.90;99.90;;;;;;5132078;27;20059;-68
2022/10/06 10:47:37;;;;;;;7.57;2.47;;;14.80;99.90;;;;;;5132597;27;20039;-68
2022/10/06 10:50:28;;;;;;;1.73;1.05;;;14.80;99.90;;;;;;5132608;27;20099;-68
2022/10/06 10:53:00;;;;;;;3.95;1.05;;;14.80;99.90;;;;;;5132511;27;20093;-68
2022/10/06 10:55:34;;;;;;;7.18;1.30;;;14.80;99.90;;;;;;5132030;27;20437;-68
2022/10/06 10:58:22;;;;;;;5.70;1.27;;;14.80;99.90;;;;;;5153360;27;20461;-68
2022/10/06 11:00:53;;;;;;;3.00;1.50;;;14.80;99.90;;;;;;5157038;27;20494;-68
2022/10/06 11:03:19;;;;;;;2.70;1.45;;;14.80;99.90;;;;;;5157031;27;20507;-68
2022/10/06 11:06:13;;;;;;;2.88;1.00;;;14.80;99.90;;;;;;5156519;27;20063;-68
2022/10/06 11:09:03;;;;;;;5.85;1.20;;;15.00;99.90;;;;;;5157007;27;20042;-68
2022/10/06 11:11:44;;;;;;;6.18;1.23;;;15.00;99.90;;;;;;5156758;27;20038;-68
2022/10/06 11:14:47;;;;;;;7.28;1.25;;;15.00;99.90;;;;;;5156470;27;20566;-69
2022/10/06 11:17:43;;;;;;;9.30;1.70;;;15.00;99.90;;;;;;5156827;27;20135;-68
2022/10/06 11:20:43;;;;;;;2.60;1.00;;;15.00;99.90;;;;;;5156629;27;20038;-68
2022/10/06 11:23:29;;;;;;;6.25;1.60;;;15.10;99.90;;;;;;5155405;27;20035;-68
2022/10/06 11:26:13;;;;;;;7.75;1.85;;;15.40;99.90;;;;;;5156343;27;20076;-69
2022/10/06 11:29:02;;;;;;;5.50;1.25;;;15.50;99.90;;;;;;5156418;27;20045;-68
2022/10/06 11:31:43;;;;;;;6.28;1.10;;;15.60;99.90;;;;;;5156540;27;20068;-66
2022/10/06 11:34:09;;;;;;;11.40;1.30;;;15.60;99.90;;;;;;5156178;27;20030;-68
2022/10/06 11:36:53;;;;;;;9.35;1.40;;;15.50;99.90;;;;;;5156327;27;20038;-67
2022/10/06 11:39:27;;;;;;;5.70;1.05;;;15.40;99.90;;;;;;5156434;27;20118;-68
2022/10/06 11:42:09;;;;;;;6.03;1.10;;;15.40;99.90;;;;;;5156310;27;20034;-67
2022/10/06 11:44:40;;;;;;;6.32;1.20;;;15.50;99.90;;;;;;5155900;27;20057;-68
2022/10/06 11:47:15;;;;;;;4.65;1.52;;;15.50;99.90;;;;;;5156121;27;20039;-67
2022/10/06 11:49:52;;;;;;;5.40;1.35;;;15.50;99.90;;;;;;5156365;27;20047;-67
2022/10/06 11:52:17;;;;;;;5.63;1.05;;;15.50;99.90;;;;;;5156042;27;20046;-67
2022/10/06 11:54:54;;;;;;;3.85;1.17;;;15.60;99.90;;;;;;5155683;27;20402;-68
2022/10/06 11:57:23;;;;;;;4.55;1.00;;;15.70;99.90;;;;;;5155872;27;20039;-67
2022/10/06 12:00:02;;;;;;;8.40;1.30;;;15.80;99.90;;;;;;5153943;27;20443;-67
2022/10/06 12:02:41;;;;;;;8.55;0.90;;;15.80;99.90;;;;;;5155946;27;20067;-67
2022/10/06 12:05:09;;;;;;;3.13;0.98;;;15.70;99.90;;;;;;5155553;27;20030;-67
2022/10/06 12:07:53;;;;;;;8.23;0.85;;;15.60;99.90;;;;;;5153705;27;20486;-67
2022/10/06 12:10:28;;;;;;;6.80;1.10;;;15.50;99.90;;;;;;5155352;27;20487;-67
2022/10/06 12:13:15;;;;;;;5.50;0.90;;;15.50;99.90;;;;;;5155412;27;20034;-66
2022/10/06 12:16:02;;;;;;;2.97;0.90;;;15.70;99.90;;;;;;5154903;27;20038;-66
2022/10/06 12:18:50;;;;;;;1.77;1.00;;;15.80;99.90;;;;;;5155475;27;20118;-65
2022/10/06 12:21:34;;;;;;;3.05;0.70;;;15.90;99.90;;;;;;5155566;27;20053;-66
2022/10/06 12:24:33;;;;;;;5.82;0.73;;;16.00;99.90;;;;;;5154934;27;20038;-66
2022/10/06 12:27:34;;;;;;;8.52;0.90;;;16.10;99.90;;;;;;5141521;27;20521;-66
2022/10/06 12:30:04;;;;;;;1.73;0.88;;;16.10;99.90;;;;;;5155092;27;20118;-67
2022/10/06 12:32:52;;;;;;;4.97;1.13;;;16.10;99.90;;;;;;5154960;27;20380;-68
2022/10/06 12:35:33;;;;;;;2.50;0.57;;;16.10;99.90;;;;;;5154961;27;20074;-67
2022/10/06 12:38:04;;;;;;;3.13;1.00;;;16.10;99.90;;;;;;5155106;27;20038;-67
2022/10/06 12:40:39;;;;;;;4.55;0.93;;;16.10;99.90;;;;;;5154969;27;20083;-67
2022/10/06 12:43:13;;;;;;;3.83;0.70;;;16.10;99.90;;;;;;5155203;27;20038;-67
2022/10/06 12:45:54;;;;;;;7.18;1.17;;;16.10;99.90;;;;;;5154766;27;20384;-67
2022/10/06 12:48:42;;;;;;;1.15;0.80;;;16.10;99.90;;;;;;5154955;27;20062;-66
2022/10/06 12:51:17;;;;;;;3.88;0.75;;;16.20;99.90;;;;;;5115808;27;20050;-66
2022/10/06 12:53:55;;;;;;;1.75;0.80;;;16.20;99.90;;;;;;5154898;27;20046;-67
2022/10/06 12:56:33;;;;;;;5.85;1.55;;;16.30;99.90;;;;;;5154876;27;20035;-67
2022/10/06 12:59:25;;;;;;;5.47;0.90;;;16.20;99.90;;;;;;5154646;27;20037;-68
2022/10/06 13:01:57;;;;;;;3.55;0.70;;;16.30;99.90;;;;;;5154491;27;20038;-68
2022/10/06 13:04:44;;;;;;;2.20;0.73;;;16.40;99.90;;;;;;5154039;27;20084;-68
2022/10/06 13:07:10;;;;;;;3.70;0.70;;;16.40;99.90;;;;;;5154089;27;20038;-67
2022/10/06 13:09:36;;;;;;;4.82;0.88;;;16.50;99.90;;;;;;5153768;27;20126;-67
2022/10/06 13:12:37;;;;;;;1.52;0.63;;;16.60;99.90;;;;;;5153728;27;20093;-67
2022/10/06 13:15:22;;;;;;;4.40;1.23;;;16.50;99.90;;;;;;5109542;27;20057;-68
2022/10/06 13:17:54;;;;;;;5.32;0.80;;;16.40;99.90;;;;;;5153785;27;20026;-67
2022/10/06 13:20:47;;;;;;;3.63;0.73;;;16.40;99.90;;;;;;5152592;27;20039;-67